PWSweather.com
Personal Weather Stations
Station Observations
ISTOCKPO4
Cheadle HulmeGB SK8 6NZ

Cheadle HulmeGB SK8 6NZ

Lat: 53.363783, Lon: -2.1948438

Elevation: 261

Station Type: Davis VP2 with Daytime FARS

http://www.cheadlehulmeweather.co.uk

Latest ConditionsUpdated 9:45:03 PM GMT Sunday, May 27, 2018
Currently Today's Max Today's Min Today's Average
Temperature 65.1°F18.4°C 79.9°F26.6°C 56.8°F13.8°C 68.6°F20.3°C
Dew Point 53.9°F12.2°C 59.4°F15.2°C 45.3°F7.4°C 54.2°F12.3°C
Winds 5.0 mph E8.0 kmh E 14.0 mph E22.5 kmh E - 8.6 mph 13.8 kmh
Wind Gusts 15.0 mph24.1 kmh 27.0 mph43.5 kmh - -
Humidity 67% 80% 47% 61%
Pressure 30.01 in1016.3 mb 30.11 in1019.6 mb 29.97 in1014.9 mb -
Hour Temp Dew Point Humidity Winds Wind Gusts Pressure Precip Precip Rate Daily Precip Total
09:45 PM 65.1°F18.4°C 53.9°F12.2°C 67% 5.0 mph E8.0 kmh E 15.0 mph24.1 kmh 30.01 in1016.3 mb 0.00 in0.0 mm 0.00 in0.0 mm 0.00 in0.0 mm
09:30 PM 65.5°F18.6°C 54.6°F12.6°C 68% 2.0 mph ESE3.2 kmh ESE 8.0 mph12.9 kmh 30.00 in1015.9 mb 0.00 in0.0 mm 0.00 in0.0 mm 0.00 in0.0 mm
09:15 PM 65.7°F18.7°C 54.4°F12.4°C 67% 1.0 mph ENE1.6 kmh ENE 5.0 mph8.0 kmh 30.00 in1015.9 mb 0.00 in0.0 mm 0.00 in0.0 mm 0.00 in0.0 mm
09:00 PM 65.8°F18.8°C 54.6°F12.6°C 67% 5.0 mph NE8.0 kmh NE 11.0 mph17.7 kmh 30.00 in1015.9 mb 0.00 in0.0 mm 0.00 in0.0 mm 0.00 in0.0 mm
08:45 PM 66.4°F19.1°C 55.1°F12.8°C 67% 6.0 mph NE9.7 kmh NE 14.0 mph22.5 kmh 30.00 in1015.9 mb 0.00 in0.0 mm 0.00 in0.0 mm 0.00 in0.0 mm
08:30 PM 66.7°F19.3°C 55.4°F13.0°C 67% 6.0 mph NE9.7 kmh NE 14.0 mph22.5 kmh 30.00 in1015.9 mb 0.00 in0.0 mm 0.00 in0.0 mm 0.00 in0.0 mm
08:15 PM 67.1°F19.5°C 55.4°F13.0°C 66% 8.0 mph NE12.9 kmh NE 15.0 mph24.1 kmh 30.00 in1015.9 mb 0.00 in0.0 mm 0.00 in0.0 mm 0.00 in0.0 mm
08:00 PM 67.6°F19.8°C 55.5°F13.1°C 65% 9.0 mph NE14.5 kmh NE 14.0 mph22.5 kmh 30.00 in1015.9 mb 0.00 in0.0 mm 0.00 in0.0 mm 0.00 in0.0 mm
07:45 PM 68.0°F20.0°C 55.4°F13.0°C 64% 5.0 mph NE8.0 kmh NE 15.0 mph24.1 kmh 30.00 in1015.9 mb 0.00 in0.0 mm 0.00 in0.0 mm 0.00 in0.0 mm
07:30 PM 68.2°F20.1°C 54.7°F12.6°C 62% 4.0 mph ENE6.4 kmh ENE 10.0 mph16.1 kmh 30.02 in1016.6 mb 0.00 in0.0 mm 0.00 in0.0 mm 0.00 in0.0 mm
07:15 PM 68.5°F20.3°C 54.6°F12.6°C 61% 7.0 mph ENE11.3 kmh ENE 13.0 mph20.9 kmh 30.01 in1016.3 mb 0.00 in0.0 mm 0.00 in0.0 mm 0.00 in0.0 mm
07:00 PM 69.1°F20.6°C 54.6°F12.6°C 60% 4.0 mph NE6.4 kmh NE 13.0 mph20.9 kmh 30.01 in1016.3 mb 0.00 in0.0 mm 0.00 in0.0 mm 0.00 in0.0 mm
06:45 PM 69.3°F20.7°C 53.8°F12.1°C 58% 6.0 mph E9.7 kmh E 16.0 mph25.7 kmh 30.00 in1015.9 mb 0.00 in0.0 mm 0.00 in0.0 mm 0.00 in0.0 mm
06:30 PM 69.8°F21.0°C 53.9°F12.2°C 57% 7.0 mph ENE11.3 kmh ENE 16.0 mph25.7 kmh 30.00 in1015.9 mb 0.00 in0.0 mm 0.00 in0.0 mm 0.00 in0.0 mm
06:15 PM 70.2°F21.2°C 53.7°F12.1°C 56% 8.0 mph ENE12.9 kmh ENE 16.0 mph25.7 kmh 30.00 in1015.9 mb 0.00 in0.0 mm 0.00 in0.0 mm 0.00 in0.0 mm
06:00 PM 70.5°F21.4°C 53.6°F12.0°C 55% 8.0 mph E12.9 kmh E 18.0 mph29.0 kmh 30.00 in1015.9 mb 0.00 in0.0 mm 0.00 in0.0 mm 0.00 in0.0 mm
05:45 PM 71.2°F21.8°C 54.2°F12.3°C 55% 8.0 mph ENE12.9 kmh ENE 16.0 mph25.7 kmh 29.99 in1015.6 mb 0.00 in0.0 mm 0.00 in0.0 mm 0.00 in0.0 mm
05:30 PM 72.0°F22.2°C 54.4°F12.4°C 54% 9.0 mph E14.5 kmh E 18.0 mph29.0 kmh 29.99 in1015.6 mb 0.00 in0.0 mm 0.00 in0.0 mm 0.00 in0.0 mm
05:15 PM 72.5°F22.5°C 53.9°F12.2°C 52% 8.0 mph E12.9 kmh E 16.0 mph25.7 kmh 29.98 in1015.2 mb 0.00 in0.0 mm 0.00 in0.0 mm 0.00 in0.0 mm
05:00 PM 73.0°F22.8°C 53.8°F12.1°C 51% 8.0 mph ENE12.9 kmh ENE 20.0 mph32.2 kmh 29.97 in1014.9 mb 0.00 in0.0 mm 0.00 in0.0 mm 0.00 in0.0 mm
04:45 PM 73.4°F23.0°C 54.2°F12.3°C 51% 8.0 mph ENE12.9 kmh ENE 21.0 mph33.8 kmh 29.97 in1014.9 mb 0.00 in0.0 mm 0.00 in0.0 mm 0.00 in0.0 mm
04:30 PM 74.1°F23.4°C 54.8°F12.7°C 51% 9.0 mph NE14.5 kmh NE 21.0 mph33.8 kmh 29.97 in1014.9 mb 0.00 in0.0 mm 0.00 in0.0 mm 0.00 in0.0 mm
04:15 PM 74.8°F23.8°C 54.9°F12.7°C 50% 8.0 mph ENE12.9 kmh ENE 17.0 mph27.4 kmh 29.97 in1014.9 mb 0.00 in0.0 mm 0.00 in0.0 mm 0.00 in0.0 mm
04:00 PM 75.7°F24.3°C 54.7°F12.6°C 48% 10.0 mph ENE16.1 kmh ENE 20.0 mph32.2 kmh 29.97 in1014.9 mb 0.00 in0.0 mm 0.00 in0.0 mm 0.00 in0.0 mm
03:45 PM 78.8°F26.0°C 56.9°F13.8°C 47% 9.0 mph ENE14.5 kmh ENE 18.0 mph29.0 kmh 29.97 in1014.9 mb 0.00 in0.0 mm 0.00 in0.0 mm 0.00 in0.0 mm
03:30 PM 77.7°F25.4°C 55.9°F13.3°C 47% 13.0 mph E20.9 kmh E 24.0 mph38.6 kmh 29.97 in1014.9 mb 0.00 in0.0 mm 0.00 in0.0 mm 0.00 in0.0 mm
03:15 PM 79.0°F26.1°C 57.0°F13.9°C 47% 12.0 mph E19.3 kmh E 25.0 mph40.2 kmh 29.97 in1014.9 mb 0.00 in0.0 mm 0.00 in0.0 mm 0.00 in0.0 mm
03:00 PM 77.2°F25.1°C 56.0°F13.3°C 48% 11.0 mph E17.7 kmh E 24.0 mph38.6 kmh 29.97 in1014.9 mb 0.00 in0.0 mm 0.00 in0.0 mm 0.00 in0.0 mm
02:45 PM 77.0°F25.0°C 56.4°F13.6°C 49% 9.0 mph E14.5 kmh E 18.0 mph29.0 kmh 29.98 in1015.2 mb 0.00 in0.0 mm 0.00 in0.0 mm 0.00 in0.0 mm
02:30 PM 76.8°F24.9°C 56.8°F13.8°C 50% 13.0 mph E20.9 kmh E 27.0 mph43.5 kmh 29.97 in1014.9 mb 0.00 in0.0 mm 0.00 in0.0 mm 0.00 in0.0 mm
02:15 PM 77.2°F25.1°C 56.0°F13.3°C 48% 13.0 mph E20.9 kmh E 26.0 mph41.8 kmh 29.98 in1015.2 mb 0.00 in0.0 mm 0.00 in0.0 mm 0.00 in0.0 mm
02:00 PM 77.5°F25.3°C 56.3°F13.5°C 48% 12.0 mph E19.3 kmh E 24.0 mph38.6 kmh 29.97 in1014.9 mb 0.00 in0.0 mm 0.00 in0.0 mm 0.00 in0.0 mm
01:45 PM 78.4°F25.8°C 57.1°F13.9°C 48% 12.0 mph E19.3 kmh E 23.0 mph37.0 kmh 29.98 in1015.2 mb 0.00 in0.0 mm 0.00 in0.0 mm 0.00 in0.0 mm
01:30 PM 79.3°F26.3°C 57.4°F14.1°C 47% 11.0 mph E17.7 kmh E 26.0 mph41.8 kmh 29.98 in1015.2 mb 0.00 in0.0 mm 0.00 in0.0 mm 0.00 in0.0 mm
01:15 PM 79.9°F26.6°C 57.8°F14.3°C 47% 12.0 mph E19.3 kmh E 24.0 mph38.6 kmh 29.98 in1015.2 mb 0.00 in0.0 mm 0.00 in0.0 mm 0.00 in0.0 mm
01:00 PM 78.3°F25.7°C 57.5°F14.2°C 49% 14.0 mph E22.5 kmh E 23.0 mph37.0 kmh 29.98 in1015.2 mb 0.00 in0.0 mm 0.00 in0.0 mm 0.00 in0.0 mm
12:45 PM 77.5°F25.3°C 57.4°F14.1°C 50% 13.0 mph E20.9 kmh E 24.0 mph38.6 kmh 29.98 in1015.2 mb 0.00 in0.0 mm 0.00 in0.0 mm 0.00 in0.0 mm
12:30 PM 76.6°F24.8°C 57.7°F14.3°C 52% 13.0 mph E20.9 kmh E 26.0 mph41.8 kmh 29.99 in1015.6 mb 0.00 in0.0 mm 0.00 in0.0 mm 0.00 in0.0 mm
12:15 PM 75.7°F24.3°C 56.9°F13.8°C 52% 13.0 mph E20.9 kmh E 25.0 mph40.2 kmh 29.99 in1015.6 mb 0.00 in0.0 mm 0.00 in0.0 mm 0.00 in0.0 mm
12:00 PM 77.4°F25.2°C 58.4°F14.7°C 52% 10.0 mph E16.1 kmh E 20.0 mph32.2 kmh 29.99 in1015.6 mb 0.00 in0.0 mm 0.00 in0.0 mm 0.00 in0.0 mm
11:45 AM 77.7°F25.4°C 58.7°F14.8°C 52% 10.0 mph E16.1 kmh E 22.0 mph35.4 kmh 30.00 in1015.9 mb 0.00 in0.0 mm 0.00 in0.0 mm 0.00 in0.0 mm
11:30 AM 77.7°F25.4°C 58.7°F14.8°C 52% 9.0 mph E14.5 kmh E 17.0 mph27.4 kmh 30.00 in1015.9 mb 0.00 in0.0 mm 0.00 in0.0 mm 0.00 in0.0 mm
11:15 AM 77.4°F25.2°C 59.4°F15.2°C 54% 12.0 mph ENE19.3 kmh ENE 24.0 mph38.6 kmh 30.00 in1015.9 mb 0.00 in0.0 mm 0.00 in0.0 mm 0.00 in0.0 mm
11:00 AM 77.5°F25.3°C 59.1°F15.1°C 53% 12.0 mph E19.3 kmh E 24.0 mph38.6 kmh 30.00 in1015.9 mb 0.00 in0.0 mm 0.00 in0.0 mm 0.00 in0.0 mm
10:45 AM 77.2°F25.1°C 58.7°F14.8°C 53% 12.0 mph ENE19.3 kmh ENE 21.0 mph33.8 kmh 30.00 in1015.9 mb 0.00 in0.0 mm 0.00 in0.0 mm 0.00 in0.0 mm
10:30 AM 76.8°F24.9°C 58.9°F14.9°C 54% 11.0 mph E17.7 kmh E 20.0 mph32.2 kmh 30.01 in1016.3 mb 0.00 in0.0 mm 0.00 in0.0 mm 0.00 in0.0 mm
10:15 AM 75.9°F24.4°C 57.6°F14.2°C 53% 13.0 mph ENE20.9 kmh ENE 27.0 mph43.5 kmh 30.01 in1016.3 mb 0.00 in0.0 mm 0.00 in0.0 mm 0.00 in0.0 mm
10:00 AM 76.5°F24.7°C 57.0°F13.9°C 51% 10.0 mph E16.1 kmh E 24.0 mph38.6 kmh 30.01 in1016.3 mb 0.00 in0.0 mm 0.00 in0.0 mm 0.00 in0.0 mm
09:45 AM 75.7°F24.3°C 57.4°F14.1°C 53% 8.0 mph E12.9 kmh E 18.0 mph29.0 kmh 30.02 in1016.6 mb 0.00 in0.0 mm 0.00 in0.0 mm 0.00 in0.0 mm
09:30 AM 74.5°F23.6°C 57.8°F14.3°C 56% 10.0 mph NE16.1 kmh NE 19.0 mph30.6 kmh 30.02 in1016.6 mb 0.00 in0.0 mm 0.00 in0.0 mm 0.00 in0.0 mm
09:15 AM 74.1°F23.4°C 58.4°F14.7°C 58% 7.0 mph ENE11.3 kmh ENE 17.0 mph27.4 kmh 30.02 in1016.6 mb 0.00 in0.0 mm 0.00 in0.0 mm 0.00 in0.0 mm
09:00 AM 74.7°F23.7°C 57.4°F14.1°C 55% 8.0 mph ENE12.9 kmh ENE 18.0 mph29.0 kmh 30.02 in1016.6 mb 0.00 in0.0 mm 0.00 in0.0 mm 0.00 in0.0 mm
08:45 AM 73.8°F23.2°C 57.1°F13.9°C 56% 7.0 mph E11.3 kmh E 17.0 mph27.4 kmh 30.02 in1016.6 mb 0.00 in0.0 mm 0.00 in0.0 mm 0.00 in0.0 mm
08:30 AM 73.6°F23.1°C 56.4°F13.6°C 55% 8.0 mph ENE12.9 kmh ENE 16.0 mph25.7 kmh 30.02 in1016.6 mb 0.00 in0.0 mm 0.00 in0.0 mm 0.00 in0.0 mm
08:15 AM 73.0°F22.8°C 55.9°F13.3°C 55% 5.0 mph ENE8.0 kmh ENE 13.0 mph20.9 kmh 30.02 in1016.6 mb 0.00 in0.0 mm 0.00 in0.0 mm 0.00 in0.0 mm
08:00 AM 71.2°F21.8°C 56.2°F13.4°C 59% 6.0 mph NE9.7 kmh NE 15.0 mph24.1 kmh 30.02 in1016.6 mb 0.00 in0.0 mm 0.00 in0.0 mm 0.00 in0.0 mm
07:45 AM 68.5°F20.3°C 55.9°F13.3°C 64% 4.0 mph NNE6.4 kmh NNE 9.0 mph14.5 kmh 30.03 in1016.9 mb 0.00 in0.0 mm 0.00 in0.0 mm 0.00 in0.0 mm
07:30 AM 67.3°F19.6°C 55.5°F13.1°C 66% 5.0 mph NNE8.0 kmh NNE 11.0 mph17.7 kmh 30.03 in1016.9 mb 0.00 in0.0 mm 0.00 in0.0 mm 0.00 in0.0 mm
07:15 AM 67.1°F19.5°C 55.8°F13.2°C 67% 6.0 mph NNE9.7 kmh NNE 11.0 mph17.7 kmh 30.04 in1017.3 mb 0.00 in0.0 mm 0.00 in0.0 mm 0.00 in0.0 mm
07:00 AM 67.3°F19.6°C 55.1°F12.8°C 65% 6.0 mph NE9.7 kmh NE 12.0 mph19.3 kmh 30.04 in1017.3 mb 0.00 in0.0 mm 0.00 in0.0 mm 0.00 in0.0 mm
06:45 AM 66.7°F19.3°C 54.6°F12.6°C 65% 7.0 mph NE11.3 kmh NE 16.0 mph25.7 kmh 30.04 in1017.3 mb 0.00 in0.0 mm 0.00 in0.0 mm 0.00 in0.0 mm
06:30 AM 64.2°F17.9°C 54.2°F12.3°C 70% 4.0 mph NE6.4 kmh NE 9.0 mph14.5 kmh 30.04 in1017.3 mb 0.00 in0.0 mm 0.00 in0.0 mm 0.00 in0.0 mm
06:15 AM 62.2°F16.8°C 53.5°F11.9°C 73% 4.0 mph NW6.4 kmh NW 8.0 mph12.9 kmh 30.03 in1016.9 mb 0.00 in0.0 mm 0.00 in0.0 mm 0.00 in0.0 mm
06:00 AM 61.5°F16.4°C 53.5°F11.9°C 75% 4.0 mph N6.4 kmh N 10.0 mph16.1 kmh 30.03 in1016.9 mb 0.00 in0.0 mm 0.00 in0.0 mm 0.00 in0.0 mm
05:45 AM 60.1°F15.6°C 53.2°F11.8°C 78% 7.0 mph NE11.3 kmh NE 14.0 mph22.5 kmh 30.03 in1016.9 mb 0.00 in0.0 mm 0.00 in0.0 mm 0.00 in0.0 mm
05:30 AM 58.6°F14.8°C 52.5°F11.4°C 80% 8.0 mph NE12.9 kmh NE 13.0 mph20.9 kmh 30.03 in1016.9 mb 0.00 in0.0 mm 0.00 in0.0 mm 0.00 in0.0 mm
05:15 AM 58.6°F14.8°C 52.5°F11.4°C 80% 11.0 mph NE17.7 kmh NE 20.0 mph32.2 kmh 30.04 in1017.3 mb 0.00 in0.0 mm 0.00 in0.0 mm 0.00 in0.0 mm
05:00 AM 58.6°F14.8°C 52.1°F11.2°C 79% 10.0 mph NE16.1 kmh NE 16.0 mph25.7 kmh 30.04 in1017.3 mb 0.00 in0.0 mm 0.00 in0.0 mm 0.00 in0.0 mm
04:45 AM 58.5°F14.7°C 52.3°F11.3°C 80% 6.0 mph NE9.7 kmh NE 11.0 mph17.7 kmh 30.06 in1017.9 mb 0.00 in0.0 mm 0.00 in0.0 mm 0.00 in0.0 mm
04:30 AM 58.5°F14.7°C 52.0°F11.1°C 79% 4.0 mph NE6.4 kmh NE 9.0 mph14.5 kmh 30.08 in1018.6 mb 0.00 in0.0 mm 0.00 in0.0 mm 0.00 in0.0 mm
04:15 AM 58.6°F14.8°C 52.1°F11.2°C 79% 5.0 mph NE8.0 kmh NE 9.0 mph14.5 kmh 30.08 in1018.6 mb 0.00 in0.0 mm 0.00 in0.0 mm 0.00 in0.0 mm
04:00 AM 58.6°F14.8°C 51.8°F11.0°C 78% 5.0 mph E8.0 kmh E 11.0 mph17.7 kmh 30.09 in1019.0 mb 0.00 in0.0 mm 0.00 in0.0 mm 0.00 in0.0 mm
03:45 AM 59.0°F15.0°C 51.8°F11.0°C 77% 8.0 mph E12.9 kmh E 15.0 mph24.1 kmh 30.09 in1019.0 mb 0.00 in0.0 mm 0.00 in0.0 mm 0.00 in0.0 mm
03:30 AM 59.2°F15.1°C 52.0°F11.1°C 77% 7.0 mph ESE11.3 kmh ESE 14.0 mph22.5 kmh 30.11 in1019.6 mb 0.00 in0.0 mm 0.00 in0.0 mm 0.00 in0.0 mm
03:15 AM 58.5°F14.7°C 50.9°F10.5°C 76% 7.0 mph SSE11.3 kmh SSE 14.0 mph22.5 kmh 30.11 in1019.6 mb 0.00 in0.0 mm 0.00 in0.0 mm 0.00 in0.0 mm
03:00 AM 57.9°F14.4°C 50.0°F10.0°C 75% 4.0 mph E6.4 kmh E 11.0 mph17.7 kmh 30.09 in1019.0 mb 0.00 in0.0 mm 0.00 in0.0 mm 0.00 in0.0 mm
02:45 AM 57.9°F14.4°C 49.3°F9.6°C 73% 11.0 mph ENE17.7 kmh ENE 22.0 mph35.4 kmh 30.08 in1018.6 mb 0.00 in0.0 mm 0.00 in0.0 mm 0.00 in0.0 mm
02:30 AM 57.6°F14.2°C 48.2°F9.0°C 71% 12.0 mph NE19.3 kmh NE 20.0 mph32.2 kmh 30.08 in1018.6 mb 0.00 in0.0 mm 0.00 in0.0 mm 0.00 in0.0 mm
02:15 AM 57.6°F14.2°C 47.5°F8.6°C 69% 12.0 mph NE19.3 kmh NE 21.0 mph33.8 kmh 30.08 in1018.6 mb 0.00 in0.0 mm 0.00 in0.0 mm 0.00 in0.0 mm
02:00 AM 57.6°F14.2°C 47.1°F8.4°C 68% 11.0 mph NE17.7 kmh NE 19.0 mph30.6 kmh 30.08 in1018.6 mb 0.00 in0.0 mm 0.00 in0.0 mm 0.00 in0.0 mm
01:45 AM 57.4°F14.1°C 46.5°F8.1°C 67% 12.0 mph NE19.3 kmh NE 22.0 mph35.4 kmh 30.08 in1018.6 mb 0.00 in0.0 mm 0.00 in0.0 mm 0.00 in0.0 mm
01:30 AM 57.4°F14.1°C 45.3°F7.4°C 64% 11.0 mph NE17.7 kmh NE 21.0 mph33.8 kmh 30.08 in1018.6 mb 0.00 in0.0 mm 0.00 in0.0 mm 0.00 in0.0 mm
01:15 AM 56.8°F13.8°C 45.6°F7.6°C 66% 12.0 mph NE19.3 kmh NE 23.0 mph37.0 kmh 30.09 in1019.0 mb 0.00 in0.0 mm 0.00 in0.0 mm 0.00 in0.0 mm
01:00 AM 56.8°F13.8°C 46.0°F7.8°C 67% 12.0 mph NE19.3 kmh NE 23.0 mph37.0 kmh 30.10 in1019.3 mb 0.00 in0.0 mm 0.00 in0.0 mm 0.00 in0.0 mm
12:45 AM 57.0°F13.9°C 45.8°F7.7°C 66% 11.0 mph NE17.7 kmh NE 22.0 mph35.4 kmh 30.11 in1019.6 mb 0.00 in0.0 mm 0.00 in0.0 mm 0.00 in0.0 mm
12:30 AM 57.4°F14.1°C 46.1°F7.8°C 66% 13.0 mph NE20.9 kmh NE 26.0 mph41.8 kmh 30.11 in1019.6 mb 0.00 in0.0 mm 0.00 in0.0 mm 0.00 in0.0 mm
12:15 AM 57.6°F14.2°C 46.3°F7.9°C 66% 11.0 mph NE17.7 kmh NE 23.0 mph37.0 kmh 30.11 in1019.6 mb 0.00 in0.0 mm 0.00 in0.0 mm 0.00 in0.0 mm
12:00 AM 57.9°F14.4°C 46.6°F8.1°C 66% 12.0 mph NE19.3 kmh NE 23.0 mph37.0 kmh 30.11 in1019.6 mb 0.00 in0.0 mm 0.00 in0.0 mm 0.00 in0.0 mm